Time;durP1;ratioP1;P1;durP2;ratioP2;P2;SDS_P1;SDS_P2;PMS_P1;PMS_P2;Temp;Humidity;BMP_temperature;BMP_pressure;BME280_temperature;BME280_humidity;BME280_pressure;Samples;Min_cycle;Max_cycle;Signal;HPM_P1;HPM_P2
2023/08/18 00:00:29;;;;;;;0.00;0.00;;;18.10;99.90;;;;;;4944486;28;20504;-69
2023/08/18 00:02:55;;;;;;;0.10;0.10;;;18.10;99.90;;;;;;4935881;28;20102;-69
2023/08/18 00:05:21;;;;;;;0.00;0.00;;;18.00;99.90;;;;;;4920524;28;20115;-69
2023/08/18 00:07:47;;;;;;;0.10;0.10;;;17.90;99.90;;;;;;4949143;28;20038;-69
2023/08/18 00:10:12;;;;;;;0.30;0.30;;;18.00;99.90;;;;;;4952823;28;20040;-69
2023/08/18 00:12:38;;;;;;;0.00;0.00;;;17.90;99.90;;;;;;4916744;28;20039;-69
2023/08/18 00:15:04;;;;;;;0.00;0.00;;;17.90;99.90;;;;;;4912532;28;20142;-69
2023/08/18 00:17:30;;;;;;;0.15;0.15;;;17.80;99.90;;;;;;4938414;28;20056;-69
2023/08/18 00:19:56;;;;;;;0.10;0.10;;;17.80;99.90;;;;;;4959518;28;20038;-69
2023/08/18 00:22:21;;;;;;;0.65;0.60;;;17.80;99.90;;;;;;4936026;28;20412;-69
2023/08/18 00:24:47;;;;;;;0.20;0.15;;;17.80;99.90;;;;;;4931964;28;20592;-69
2023/08/18 00:27:13;;;;;;;0.10;0.10;;;17.80;99.90;;;;;;4955016;28;20450;-69
2023/08/18 00:29:39;;;;;;;0.65;0.30;;;17.80;99.90;;;;;;4934732;28;20168;-69
2023/08/18 00:32:04;;;;;;;0.10;0.10;;;17.90;99.90;;;;;;4939744;28;20060;-69
2023/08/18 00:34:30;;;;;;;0.75;0.35;;;17.90;99.90;;;;;;4942914;28;20042;-69
2023/08/18 00:36:56;;;;;;;0.08;0.08;;;17.90;99.90;;;;;;4922078;28;20039;-69
2023/08/18 00:39:22;;;;;;;0.00;0.00;;;17.80;99.90;;;;;;4945525;28;20055;-69
2023/08/18 00:41:48;;;;;;;2.00;0.20;;;17.80;99.90;;;;;;4938389;28;20036;-69
2023/08/18 00:44:13;;;;;;;0.22;0.22;;;17.70;99.90;;;;;;4914578;28;20137;-69
2023/08/18 00:46:39;;;;;;;0.03;0.03;;;17.70;99.90;;;;;;4926148;28;20059;-69
2023/08/18 00:49:08;;;;;;;0.00;0.00;;;17.70;99.90;;;;;;4910023;28;20044;-69
2023/08/18 00:51:35;;;;;;;0.00;0.00;;;17.70;99.90;;;;;;4952040;28;20324;-69
2023/08/18 00:54:02;;;;;;;0.00;0.00;;;17.70;99.90;;;;;;4923041;28;20068;-69
2023/08/18 00:56:28;;;;;;;0.00;0.00;;;17.70;99.90;;;;;;4939772;28;20041;-69
2023/08/18 00:58:54;;;;;;;0.00;0.00;;;17.60;99.90;;;;;;4946823;28;20052;-69
2023/08/18 01:01:20;;;;;;;3.03;0.38;;;17.70;99.90;;;;;;4919069;28;20392;-69
2023/08/18 01:03:46;;;;;;;0.00;0.00;;;17.60;99.90;;;;;;4945866;28;20098;-69
2023/08/18 01:06:11;;;;;;;0.00;0.00;;;17.70;99.90;;;;;;4963182;28;20096;-69
2023/08/18 01:08:37;;;;;;;0.10;0.10;;;17.70;99.90;;;;;;4919659;28;20053;-69
2023/08/18 01:11:27;;;;;;;0.00;0.00;;;17.70;99.90;;;;;;4933759;28;20044;-69
2023/08/18 01:14:06;;;;;;;0.08;0.08;;;17.70;99.90;;;;;;4897778;28;20350;-69
2023/08/18 01:16:35;;;;;;;0.00;0.00;;;17.70;99.90;;;;;;4920843;28;20044;-69
2023/08/18 01:19:01;;;;;;;0.00;0.00;;;17.80;99.90;;;;;;4931805;28;20055;-69
2023/08/18 01:21:26;;;;;;;0.00;0.00;;;17.80;99.90;;;;;;4911551;28;20057;-69
2023/08/18 01:23:52;;;;;;;0.00;0.00;;;17.80;99.90;;;;;;4916902;28;20147;-69
2023/08/18 01:26:17;;;;;;;0.00;0.00;;;17.80;99.90;;;;;;4923463;28;20080;-69
2023/08/18 01:28:44;;;;;;;0.20;0.20;;;17.80;99.90;;;;;;4906967;28;20049;-69
2023/08/18 01:31:21;;;;;;;0.00;0.00;;;17.80;99.90;;;;;;4936279;28;20041;-68
2023/08/18 01:33:58;;;;;;;0.03;0.03;;;17.70;99.90;;;;;;4949541;28;20059;-69
2023/08/18 01:36:32;;;;;;;0.00;0.00;;;17.70;99.90;;;;;;4947341;28;20100;-69
2023/08/18 01:39:00;;;;;;;0.03;0.03;;;17.60;99.90;;;;;;4940186;28;20135;-69
2023/08/18 01:41:26;;;;;;;0.10;0.10;;;17.50;99.90;;;;;;4909541;28;20532;-69
2023/08/18 01:43:53;;;;;;;0.00;0.00;;;17.50;99.90;;;;;;4937285;28;20046;-69
2023/08/18 01:46:19;;;;;;;0.00;0.00;;;17.50;99.90;;;;;;4957357;28;20131;-70
2023/08/18 01:48:44;;;;;;;0.00;0.00;;;17.40;99.90;;;;;;4953622;28;20605;-70
2023/08/18 01:51:10;;;;;;;0.00;0.00;;;17.40;99.90;;;;;;4929320;28;20048;-70
2023/08/18 01:53:36;;;;;;;0.00;0.00;;;17.40;99.90;;;;;;4954602;28;20048;-70
2023/08/18 01:56:02;;;;;;;0.35;0.35;;;17.40;99.90;;;;;;4914938;28;20040;-70
2023/08/18 01:58:28;;;;;;;0.70;0.20;;;17.40;99.90;;;;;;4948683;28;20056;-71
2023/08/18 02:00:58;;;;;;;0.00;0.00;;;17.40;99.90;;;;;;4908867;28;20062;-71
2023/08/18 02:03:27;;;;;;;0.00;0.00;;;17.40;99.90;;;;;;4913602;28;20052;-71
2023/08/18 02:05:59;;;;;;;0.00;0.00;;;17.30;99.90;;;;;;4936430;28;20385;-71
2023/08/18 02:08:24;;;;;;;0.05;0.05;;;17.30;99.90;;;;;;4931190;28;20064;-71
2023/08/18 02:10:50;;;;;;;0.00;0.00;;;17.30;99.90;;;;;;4938711;28;20131;-71
2023/08/18 02:13:16;;;;;;;0.08;0.08;;;17.20;99.90;;;;;;4913114;28;20049;-71
2023/08/18 02:15:46;;;;;;;0.00;0.00;;;17.10;99.90;;;;;;4929036;28;20133;-71
2023/08/18 02:18:11;;;;;;;0.00;0.00;;;17.20;99.90;;;;;;4927645;28;20073;-71
2023/08/18 02:20:38;;;;;;;0.30;0.17;;;17.10;99.90;;;;;;4908458;28;20513;-71
2023/08/18 02:23:04;;;;;;;5.82;0.30;;;17.00;99.90;;;;;;4931876;28;20128;-71
2023/08/18 02:25:30;;;;;;;1.25;0.52;;;17.10;99.90;;;;;;4911603;28;20036;-71
2023/08/18 02:27:55;;;;;;;0.20;0.15;;;17.00;99.90;;;;;;4927156;28;20044;-71
2023/08/18 02:30:21;;;;;;;0.00;0.00;;;17.00;99.90;;;;;;4942571;28;20033;-71
2023/08/18 02:32:46;;;;;;;0.00;0.00;;;16.90;99.90;;;;;;4913003;28;20056;-71
2023/08/18 02:35:12;;;;;;;0.00;0.00;;;16.90;99.90;;;;;;4927498;28;20164;-71
2023/08/18 02:37:38;;;;;;;6.03;0.90;;;16.90;99.90;;;;;;4975028;28;20028;-71
2023/08/18 02:40:05;;;;;;;0.63;0.63;;;16.90;99.90;;;;;;4935396;28;20059;-71
2023/08/18 02:42:31;;;;;;;0.45;0.45;;;16.80;99.90;;;;;;4936373;28;20032;-71
2023/08/18 02:44:56;;;;;;;0.00;0.00;;;16.80;99.90;;;;;;4919866;28;20044;-71
2023/08/18 02:47:22;;;;;;;0.00;0.00;;;16.80;99.90;;;;;;4925399;28;20044;-71
2023/08/18 02:49:50;;;;;;;0.40;0.30;;;16.80;99.90;;;;;;4906396;28;20415;-71
2023/08/18 02:52:15;;;;;;;0.10;0.10;;;16.70;99.90;;;;;;4907515;28;20051;-71
2023/08/18 02:54:41;;;;;;;2.83;1.05;;;16.70;99.90;;;;;;4905678;28;20044;-71
2023/08/18 02:57:06;;;;;;;0.00;0.00;;;16.70;99.90;;;;;;4954223;28;20044;-71
2023/08/18 02:59:32;;;;;;;0.20;0.20;;;16.70;99.90;;;;;;4947604;28;20067;-71
2023/08/18 03:01:58;;;;;;;0.20;0.20;;;16.60;99.90;;;;;;4919472;28;20095;-71
2023/08/18 03:04:24;;;;;;;0.15;0.15;;;16.70;99.90;;;;;;4929682;28;20056;-71
2023/08/18 03:06:49;;;;;;;1.00;0.40;;;16.70;99.90;;;;;;4925660;28;20049;-71
2023/08/18 03:09:16;;;;;;;0.10;0.10;;;16.60;99.90;;;;;;4922441;28;20166;-71
2023/08/18 03:11:42;;;;;;;0.32;0.32;;;16.60;99.90;;;;;;4949809;28;20048;-71
2023/08/18 03:14:08;;;;;;;0.10;0.10;;;16.60;99.90;;;;;;4955577;28;20039;-71
2023/08/18 03:16:34;;;;;;;0.05;0.05;;;16.50;99.90;;;;;;4952996;28;20069;-71
2023/08/18 03:18:59;;;;;;;0.10;0.10;;;16.60;99.90;;;;;;4912389;28;20041;-71
2023/08/18 03:21:25;;;;;;;0.00;0.00;;;16.50;99.90;;;;;;4934427;28;20449;-71
2023/08/18 03:23:51;;;;;;;0.15;0.08;;;16.50;99.90;;;;;;4929483;28;20072;-71
2023/08/18 03:26:16;;;;;;;0.00;0.00;;;16.50;99.90;;;;;;4935891;28;21124;-71
2023/08/18 03:28:42;;;;;;;0.30;0.22;;;16.50;99.90;;;;;;4902098;28;20048;-70
2023/08/18 03:31:08;;;;;;;0.40;0.40;;;16.60;99.90;;;;;;4964631;28;20159;-71
2023/08/18 03:33:34;;;;;;;0.20;0.20;;;16.60;99.90;;;;;;4908645;28;20447;-71
2023/08/18 03:36:00;;;;;;;0.20;0.20;;;16.60;99.90;;;;;;4914030;28;20044;-70
2023/08/18 03:38:26;;;;;;;1.08;0.47;;;16.60;99.90;;;;;;4952136;28;20049;-71
2023/08/18 03:41:06;;;;;;;0.05;0.05;;;16.70;99.90;;;;;;4964566;28;20041;-71
2023/08/18 03:43:33;;;;;;;0.00;0.00;;;16.70;99.90;;;;;;4897381;28;20452;-71
2023/08/18 03:46:15;;;;;;;0.20;0.20;;;16.70;99.90;;;;;;4923745;28;20526;-71
2023/08/18 03:48:41;;;;;;;0.20;0.20;;;16.80;99.90;;;;;;4905853;28;20044;-71
2023/08/18 03:51:06;;;;;;;0.28;0.28;;;16.80;99.90;;;;;;4927399;28;20036;-70
2023/08/18 03:53:32;;;;;;;0.00;0.00;;;16.80;99.90;;;;;;4911017;28;20061;-71
2023/08/18 03:55:59;;;;;;;0.10;0.10;;;16.80;99.90;;;;;;4953410;28;20448;-71
2023/08/18 03:58:25;;;;;;;0.00;0.00;;;16.90;99.90;;;;;;4926943;28;20050;-71
2023/08/18 04:00:56;;;;;;;0.10;0.10;;;16.90;99.90;;;;;;4931952;28;20040;-71
2023/08/18 04:03:22;;;;;;;0.00;0.00;;;16.90;99.90;;;;;;4953824;28;20100;-71
2023/08/18 04:05:47;;;;;;;0.00;0.00;;;16.90;99.90;;;;;;4950037;28;20049;-71
2023/08/18 04:08:14;;;;;;;0.00;0.00;;;17.00;99.90;;;;;;4938020;28;20044;-71
2023/08/18 04:10:40;;;;;;;0.10;0.10;;;17.00;99.90;;;;;;4919219;28;20052;-71
2023/08/18 04:13:05;;;;;;;0.00;0.00;;;17.00;99.90;;;;;;4928472;28;20087;-71
2023/08/18 04:15:31;;;;;;;0.08;0.08;;;17.00;99.90;;;;;;4961811;28;20090;-71
2023/08/18 04:17:56;;;;;;;0.00;0.00;;;17.10;99.90;;;;;;4941364;28;20036;-69
2023/08/18 04:20:22;;;;;;;0.55;0.45;;;17.00;99.90;;;;;;4959976;28;20443;-69
2023/08/18 04:22:47;;;;;;;0.10;0.10;;;17.10;99.90;;;;;;4923253;28;20109;-69
2023/08/18 04:25:13;;;;;;;0.88;0.68;;;17.10;99.90;;;;;;4943706;28;20057;-70
2023/08/18 04:27:39;;;;;;;0.00;0.00;;;17.00;99.90;;;;;;4929566;28;20040;-70
2023/08/18 04:30:06;;;;;;;0.00;0.00;;;17.10;99.90;;;;;;4916107;28;20044;-70
2023/08/18 04:32:32;;;;;;;0.20;0.20;;;17.10;99.90;;;;;;4918596;28;20056;-70
2023/08/18 04:34:59;;;;;;;0.00;0.00;;;17.10;99.90;;;;;;4954766;28;20054;-70
2023/08/18 04:37:24;;;;;;;0.00;0.00;;;17.10;99.90;;;;;;4942472;28;20041;-70
2023/08/18 04:39:52;;;;;;;0.08;0.08;;;17.10;99.90;;;;;;4908517;28;20091;-70
2023/08/18 04:42:17;;;;;;;0.00;0.00;;;17.20;99.90;;;;;;4908097;28;20128;-70
2023/08/18 04:44:43;;;;;;;0.10;0.10;;;17.30;99.90;;;;;;4972291;28;20493;-70
2023/08/18 04:47:08;;;;;;;2.42;0.90;;;17.20;99.90;;;;;;4968814;28;20116;-70
2023/08/18 04:49:34;;;;;;;1.10;1.02;;;17.20;99.90;;;;;;4914425;28;20053;-70
2023/08/18 04:52:00;;;;;;;0.22;0.22;;;17.30;99.90;;;;;;4916006;28;20597;-71
2023/08/18 04:54:25;;;;;;;0.28;0.28;;;17.20;99.90;;;;;;4931930;28;20052;-70
2023/08/18 04:56:58;;;;;;;0.00;0.00;;;17.30;99.90;;;;;;4959648;28;20437;-70
2023/08/18 04:59:23;;;;;;;0.00;0.00;;;17.20;99.90;;;;;;4933641;28;20486;-70
2023/08/18 05:01:51;;;;;;;0.00;0.00;;;17.30;99.90;;;;;;4959242;28;20053;-70
2023/08/18 05:04:17;;;;;;;0.00;0.00;;;17.30;99.90;;;;;;4939640;28;20400;-70
2023/08/18 05:06:43;;;;;;;0.28;0.25;;;17.30;99.90;;;;;;4927024;28;20048;-70
2023/08/18 05:09:08;;;;;;;0.10;0.10;;;17.30;99.90;;;;;;4963921;28;20051;-70
2023/08/18 05:11:34;;;;;;;0.20;0.20;;;17.30;99.90;;;;;;4953857;28;20091;-70
2023/08/18 05:14:00;;;;;;;0.30;0.30;;;17.30;99.90;;;;;;4940710;28;20060;-70
2023/08/18 05:16:25;;;;;;;0.10;0.10;;;17.30;99.90;;;;;;4940451;28;20484;-70
2023/08/18 05:18:51;;;;;;;0.15;0.15;;;17.30;99.90;;;;;;4959774;28;20036;-70
2023/08/18 05:21:16;;;;;;;0.03;0.03;;;17.40;99.90;;;;;;4910590;28;20138;-70
2023/08/18 05:23:42;;;;;;;0.90;0.65;;;17.40;99.90;;;;;;4923421;28;20131;-70
2023/08/18 05:26:08;;;;;;;0.25;0.25;;;17.40;99.90;;;;;;4907594;28;20046;-70
2023/08/18 05:28:33;;;;;;;1.63;0.93;;;17.40;99.90;;;;;;4951730;28;20064;-70
2023/08/18 05:30:59;;;;;;;0.00;0.00;;;17.40;99.90;;;;;;4954173;28;20537;-70
2023/08/18 05:33:25;;;;;;;0.17;0.17;;;17.40;99.90;;;;;;4910481;28;20059;-70
2023/08/18 05:35:50;;;;;;;0.30;0.30;;;17.40;99.90;;;;;;4946147;28;20045;-70
2023/08/18 05:38:16;;;;;;;0.05;0.05;;;17.50;99.90;;;;;;4948232;28;20045;-70
2023/08/18 05:40:48;;;;;;;1.75;1.00;;;17.50;99.90;;;;;;4941106;28;20046;-70
2023/08/18 05:43:15;;;;;;;0.00;0.00;;;17.50;99.90;;;;;;4953283;28;20507;-70
2023/08/18 05:45:42;;;;;;;0.47;0.40;;;17.60;99.90;;;;;;4961888;28;20034;-70
2023/08/18 05:48:08;;;;;;;0.00;0.00;;;17.50;99.90;;;;;;4913432;28;20387;-70
2023/08/18 05:50:34;;;;;;;0.00;0.00;;;17.50;99.90;;;;;;4928441;28;20168;-70
2023/08/18 05:53:02;;;;;;;0.00;0.00;;;17.50;99.90;;;;;;4958777;28;20120;-70
2023/08/18 05:55:28;;;;;;;0.38;0.38;;;17.60;99.90;;;;;;4930668;28;20047;-70
2023/08/18 05:57:54;;;;;;;0.15;0.15;;;17.60;99.90;;;;;;4941747;28;20046;-70
2023/08/18 06:00:20;;;;;;;0.00;0.00;;;17.60;99.90;;;;;;4939360;28;20562;-70
2023/08/18 06:02:46;;;;;;;0.10;0.10;;;17.60;99.90;;;;;;4930241;28;20056;-70
2023/08/18 06:05:12;;;;;;;0.00;0.00;;;17.60;99.90;;;;;;4925547;28;20060;-70
2023/08/18 06:07:41;;;;;;;0.00;0.00;;;17.60;99.90;;;;;;4957672;28;20408;-70
2023/08/18 06:10:08;;;;;;;0.38;0.22;;;17.70;99.90;;;;;;4935396;28;20115;-70
2023/08/18 06:12:33;;;;;;;0.10;0.10;;;17.70;99.90;;;;;;4928196;28;20056;-70
2023/08/18 06:14:59;;;;;;;0.00;0.00;;;17.70;99.90;;;;;;4970533;28;20047;-70
2023/08/18 06:17:25;;;;;;;0.00;0.00;;;17.70;99.90;;;;;;4916071;28;20044;-70
2023/08/18 06:19:51;;;;;;;0.00;0.00;;;17.70;99.90;;;;;;4937241;28;20061;-70
2023/08/18 06:22:17;;;;;;;0.00;0.00;;;17.70;99.90;;;;;;4957280;28;20125;-70
2023/08/18 06:24:42;;;;;;;0.00;0.00;;;17.70;99.90;;;;;;4926842;28;20555;-70
2023/08/18 06:27:08;;;;;;;0.10;0.10;;;17.60;99.90;;;;;;4913385;28;20066;-70
2023/08/18 06:29:34;;;;;;;0.05;0.05;;;17.70;99.90;;;;;;4933132;28;20041;-70
2023/08/18 06:31:59;;;;;;;0.10;0.10;;;17.70;99.90;;;;;;4915572;28;20385;-70
2023/08/18 06:34:25;;;;;;;0.35;0.35;;;17.70;99.90;;;;;;4903171;28;20607;-70
2023/08/18 06:36:51;;;;;;;0.17;0.17;;;17.60;99.90;;;;;;4912516;28;20052;-70
2023/08/18 06:39:16;;;;;;;0.00;0.00;;;17.70;99.90;;;;;;4940078;28;20056;-70
2023/08/18 06:41:43;;;;;;;0.98;0.60;;;17.70;99.90;;;;;;4932030;28;20042;-70
2023/08/18 06:44:08;;;;;;;0.00;0.00;;;17.70;99.90;;;;;;4938830;28;20158;-70
2023/08/18 06:46:34;;;;;;;0.00;0.00;;;17.70;99.90;;;;;;4907708;28;20530;-70
2023/08/18 06:49:01;;;;;;;0.00;0.00;;;17.80;99.90;;;;;;4913482;28;20079;-70
2023/08/18 06:51:28;;;;;;;0.00;0.00;;;17.80;99.90;;;;;;4938313;28;20506;-70
2023/08/18 06:53:53;;;;;;;0.05;0.05;;;17.80;99.90;;;;;;4914007;28;20087;-70
2023/08/18 06:56:19;;;;;;;0.00;0.00;;;17.80;99.90;;;;;;4918445;28;20106;-70
2023/08/18 06:58:44;;;;;;;0.10;0.10;;;17.80;99.90;;;;;;4957217;28;20485;-70
2023/08/18 07:01:10;;;;;;;0.00;0.00;;;17.90;99.90;;;;;;4931274;28;20106;-70
2023/08/18 07:03:36;;;;;;;0.00;0.00;;;17.90;99.90;;;;;;4959628;28;20053;-70
2023/08/18 07:06:02;;;;;;;0.00;0.00;;;17.90;99.90;;;;;;4962234;28;20041;-70
2023/08/18 07:08:28;;;;;;;0.20;0.20;;;17.90;99.90;;;;;;4941203;28;20040;-71
2023/08/18 07:10:54;;;;;;;0.32;0.32;;;18.00;99.90;;;;;;4935013;28;20045;-70
2023/08/18 07:13:22;;;;;;;0.00;0.00;;;18.00;99.90;;;;;;4910076;28;20132;-70
2023/08/18 07:15:49;;;;;;;0.00;0.00;;;18.00;99.90;;;;;;4951811;28;20037;-70
2023/08/18 07:18:16;;;;;;;0.08;0.08;;;18.00;99.90;;;;;;4931875;28;20081;-70
2023/08/18 07:20:43;;;;;;;0.00;0.00;;;18.10;99.90;;;;;;4945669;28;20045;-70
2023/08/18 07:23:08;;;;;;;0.00;0.00;;;18.10;99.90;;;;;;4948830;28;20493;-70
2023/08/18 07:25:34;;;;;;;0.00;0.00;;;18.10;99.90;;;;;;4940256;28;20061;-70
2023/08/18 07:28:00;;;;;;;0.00;0.00;;;18.10;99.90;;;;;;4950732;28;20083;-70
2023/08/18 07:30:26;;;;;;;0.15;0.15;;;18.20;99.90;;;;;;4931958;28;20091;-71
2023/08/18 07:32:54;;;;;;;0.15;0.15;;;18.10;99.90;;;;;;4951316;28;20092;-70
2023/08/18 07:35:19;;;;;;;0.93;0.35;;;18.20;99.90;;;;;;4930039;28;20077;-70
2023/08/18 07:37:45;;;;;;;0.00;0.00;;;18.20;99.90;;;;;;4922129;28;20090;-70
2023/08/18 07:40:11;;;;;;;0.32;0.32;;;18.20;99.90;;;;;;4940890;28;20096;-70
2023/08/18 07:42:38;;;;;;;0.38;0.38;;;18.20;99.90;;;;;;4975081;28;20043;-70
2023/08/18 07:45:05;;;;;;;0.35;0.35;;;18.30;99.90;;;;;;4936303;28;20139;-70
2023/08/18 07:47:30;;;;;;;0.05;0.05;;;18.30;99.90;;;;;;4976393;28;20381;-70
2023/08/18 07:49:56;;;;;;;0.05;0.05;;;18.30;99.90;;;;;;4937064;28;20052;-69
2023/08/18 07:52:22;;;;;;;0.00;0.00;;;18.40;99.90;;;;;;4941395;28;20179;-69
2023/08/18 07:54:47;;;;;;;0.20;0.20;;;18.40;99.90;;;;;;4944202;28;20124;-69
2023/08/18 07:57:13;;;;;;;0.00;0.00;;;18.40;99.90;;;;;;4950333;28;20044;-70
2023/08/18 07:59:38;;;;;;;0.00;0.00;;;18.40;99.90;;;;;;4949155;28;20136;-70
2023/08/18 08:02:04;;;;;;;0.00;0.00;;;18.50;99.90;;;;;;4933077;28;20121;-70
2023/08/18 08:04:30;;;;;;;0.25;0.25;;;18.60;99.90;;;;;;4952884;28;20484;-70
2023/08/18 08:06:57;;;;;;;0.00;0.00;;;18.60;99.90;;;;;;4911440;28;20036;-70
2023/08/18 08:09:26;;;;;;;0.10;0.10;;;18.70;99.90;;;;;;4915082;28;20056;-70
2023/08/18 08:11:52;;;;;;;0.00;0.00;;;18.70;99.90;;;;;;4978736;28;20044;-70
2023/08/18 08:14:19;;;;;;;0.00;0.00;;;18.80;99.90;;;;;;4943567;28;20140;-70
2023/08/18 08:16:44;;;;;;;0.20;0.20;;;18.90;99.90;;;;;;4915548;28;20416;-70
2023/08/18 08:19:10;;;;;;;0.00;0.00;;;18.90;99.90;;;;;;4944782;28;20045;-70
2023/08/18 08:21:36;;;;;;;0.10;0.10;;;18.90;99.90;;;;;;4946837;28;20640;-70
2023/08/18 08:24:04;;;;;;;0.00;0.00;;;18.90;99.90;;;;;;4919172;28;20052;-70
2023/08/18 08:26:29;;;;;;;0.00;0.00;;;18.90;99.90;;;;;;4978878;28;20048;-70
2023/08/18 08:28:55;;;;;;;0.00;0.00;;;18.90;99.90;;;;;;4958217;28;20162;-70
2023/08/18 08:31:20;;;;;;;0.25;0.20;;;18.90;99.90;;;;;;4955281;28;20042;-70
2023/08/18 08:33:46;;;;;;;0.15;0.15;;;19.00;99.90;;;;;;4954987;28;20132;-70
2023/08/18 08:36:12;;;;;;;0.00;0.00;;;19.00;99.90;;;;;;4929546;28;20049;-70
2023/08/18 08:38:37;;;;;;;0.00;0.00;;;19.00;99.90;;;;;;4950144;28;20049;-71
2023/08/18 08:41:03;;;;;;;0.00;0.00;;;19.00;99.90;;;;;;4928601;28;20086;-71
2023/08/18 08:43:29;;;;;;;0.00;0.00;;;19.00;99.90;;;;;;4927888;28;20385;-71
2023/08/18 08:45:58;;;;;;;0.82;0.15;;;19.00;99.90;;;;;;4925410;28;20043;-70
2023/08/18 08:48:30;;;;;;;0.00;0.00;;;19.00;99.90;;;;;;4939842;28;20056;-70
2023/08/18 08:50:57;;;;;;;0.47;0.20;;;19.00;99.90;;;;;;4953844;28;20082;-70
2023/08/18 08:53:31;;;;;;;0.10;0.10;;;19.00;99.90;;;;;;4927718;28;20556;-70
2023/08/18 08:56:00;;;;;;;0.03;0.03;;;18.90;99.90;;;;;;4956732;28;20072;-71
2023/08/18 08:58:29;;;;;;;0.00;0.00;;;18.90;99.90;;;;;;4960665;28;20048;-71
2023/08/18 09:00:55;;;;;;;0.00;0.00;;;18.90;99.90;;;;;;4951068;28;20048;-70
2023/08/18 09:03:22;;;;;;;0.00;0.00;;;18.90;99.90;;;;;;4935480;28;20044;-70
2023/08/18 09:05:47;;;;;;;0.00;0.00;;;19.00;99.90;;;;;;4951786;28;20401;-70
2023/08/18 09:08:13;;;;;;;0.03;0.03;;;19.00;99.90;;;;;;4954384;28;20034;-70
2023/08/18 09:10:39;;;;;;;0.00;0.00;;;19.00;99.90;;;;;;4945619;28;20051;-70
2023/08/18 09:13:05;;;;;;;0.00;0.00;;;19.00;99.90;;;;;;4944901;28;20449;-70
2023/08/18 09:15:31;;;;;;;0.00;0.00;;;19.10;99.90;;;;;;4921176;28;20115;-70
2023/08/18 09:17:57;;;;;;;0.00;0.00;;;19.10;99.90;;;;;;4955199;28;20133;-70
2023/08/18 09:20:23;;;;;;;0.00;0.00;;;19.20;99.90;;;;;;4906611;28;20412;-70
2023/08/18 09:22:54;;;;;;;0.20;0.13;;;19.30;99.90;;;;;;4971366;28;20049;-70
2023/08/18 09:25:19;;;;;;;0.10;0.10;;;19.30;99.90;;;;;;4970280;28;20413;-71
2023/08/18 09:27:45;;;;;;;0.00;0.00;;;19.40;99.90;;;;;;4926768;28;20047;-71
2023/08/18 09:30:11;;;;;;;0.00;0.00;;;19.50;99.90;;;;;;4919506;28;20124;-71
2023/08/18 09:32:37;;;;;;;0.10;0.10;;;19.50;99.90;;;;;;4950793;28;20038;-70
2023/08/18 09:35:03;;;;;;;0.00;0.00;;;19.50;99.90;;;;;;4927399;28;20404;-71
2023/08/18 09:37:32;;;;;;;0.20;0.20;;;19.60;99.90;;;;;;4951010;28;20042;-70
2023/08/18 09:39:58;;;;;;;0.82;0.65;;;19.60;99.90;;;;;;4901531;28;20139;-71
2023/08/18 09:42:24;;;;;;;0.38;0.10;;;19.60;99.90;;;;;;4952562;28;20198;-71
2023/08/18 09:44:51;;;;;;;0.00;0.00;;;19.70;99.90;;;;;;4916359;28;20096;-71
2023/08/18 09:47:17;;;;;;;0.57;0.22;;;19.70;99.90;;;;;;4936306;28;20040;-71
2023/08/18 09:49:46;;;;;;;0.00;0.00;;;19.80;99.90;;;;;;4906052;28;20049;-71
2023/08/18 09:52:15;;;;;;;0.00;0.00;;;19.80;99.90;;;;;;4935499;28;20370;-71
2023/08/18 09:54:49;;;;;;;0.00;0.00;;;19.90;99.90;;;;;;4941809;28;20038;-71
2023/08/18 09:57:29;;;;;;;0.40;0.40;;;20.00;99.90;;;;;;4922714;28;20064;-71
2023/08/18 09:59:56;;;;;;;0.05;0.05;;;20.00;99.90;;;;;;4958143;28;20038;-71
2023/08/18 10:02:28;;;;;;;0.00;0.00;;;20.00;99.90;;;;;;4920041;28;20044;-71
2023/08/18 10:04:54;;;;;;;0.00;0.00;;;20.10;99.90;;;;;;4935570;28;20041;-71
2023/08/18 10:07:20;;;;;;;0.10;0.10;;;20.10;99.90;;;;;;4966051;28;20151;-71
2023/08/18 10:09:47;;;;;;;0.00;0.00;;;20.10;99.90;;;;;;4958577;28;20044;-71
2023/08/18 10:12:12;;;;;;;0.10;0.10;;;20.10;99.90;;;;;;4924002;28;20505;-72
2023/08/18 10:14:39;;;;;;;0.10;0.10;;;20.20;99.90;;;;;;4985417;28;20142;-71
2023/08/18 10:17:06;;;;;;;0.00;0.00;;;20.20;99.90;;;;;;4909821;28;20051;-71
2023/08/18 10:19:47;;;;;;;0.00;0.00;;;20.20;99.90;;;;;;4968571;28;20049;-71
2023/08/18 10:22:15;;;;;;;0.00;0.00;;;20.20;99.90;;;;;;4901650;28;20048;-71
2023/08/18 10:24:40;;;;;;;0.20;0.20;;;20.30;99.90;;;;;;4937247;28;20048;-71
2023/08/18 10:27:10;;;;;;;0.00;0.00;;;20.30;99.90;;;;;;4952115;28;20753;-70
2023/08/18 10:29:36;;;;;;;0.00;0.00;;;20.30;99.90;;;;;;4916960;28;20183;-71
2023/08/18 10:32:08;;;;;;;0.00;0.00;;;20.40;99.90;;;;;;4957764;28;20130;-70
2023/08/18 10:34:36;;;;;;;0.15;0.15;;;20.50;99.90;;;;;;4975406;28;20527;-70
2023/08/18 10:37:06;;;;;;;0.00;0.00;;;20.50;99.90;;;;;;4920911;28;20055;-71
2023/08/18 10:39:40;;;;;;;0.00;0.00;;;20.40;99.90;;;;;;4949907;28;20091;-71
2023/08/18 10:42:13;;;;;;;0.00;0.00;;;20.50;99.90;;;;;;4954044;28;20088;-71
2023/08/18 10:45:01;;;;;;;0.00;0.00;;;20.70;99.90;;;;;;4940488;28;20048;-71
2023/08/18 10:47:31;;;;;;;0.00;0.00;;;20.70;99.90;;;;;;4918635;28;20067;-71
2023/08/18 10:49:57;;;;;;;0.10;0.10;;;20.80;99.90;;;;;;4971254;28;20891;-72
2023/08/18 10:52:25;;;;;;;0.10;0.10;;;20.80;99.90;;;;;;4948796;28;20440;-71
2023/08/18 10:54:51;;;;;;;0.00;0.00;;;20.80;99.90;;;;;;4947574;28;20065;-71
2023/08/18 10:57:16;;;;;;;0.10;0.10;;;20.80;99.90;;;;;;4948168;28;20495;-71
2023/08/18 10:59:42;;;;;;;0.15;0.15;;;20.90;99.90;;;;;;4922039;28;20057;-71
2023/08/18 11:02:08;;;;;;;0.00;0.00;;;20.90;99.90;;;;;;4908348;28;20041;-71
2023/08/18 11:04:33;;;;;;;0.10;0.10;;;21.00;99.90;;;;;;4958465;28;20103;-71
2023/08/18 11:06:59;;;;;;;0.00;0.00;;;21.00;99.90;;;;;;4977444;28;20064;-71
2023/08/18 11:09:24;;;;;;;0.00;0.00;;;21.10;99.90;;;;;;4949726;28;20056;-71
2023/08/18 11:11:50;;;;;;;0.25;0.25;;;21.50;99.90;;;;;;4926260;28;20041;-71
2023/08/18 11:14:16;;;;;;;2.10;0.43;;;21.50;99.90;;;;;;4921521;28;20052;-71
2023/08/18 11:16:42;;;;;;;2.00;0.20;;;21.50;99.90;;;;;;4926522;28;20045;-71
2023/08/18 11:19:07;;;;;;;0.00;0.00;;;21.50;99.90;;;;;;4933364;28;20155;-71
2023/08/18 11:21:34;;;;;;;0.00;0.00;;;21.40;99.90;;;;;;4950888;28;20036;-71
2023/08/18 11:24:00;;;;;;;0.30;0.30;;;21.30;99.90;;;;;;4912482;28;20055;-72
2023/08/18 11:26:26;;;;;;;0.28;0.28;;;21.20;99.90;;;;;;4904168;28;20040;-69
2023/08/18 11:28:51;;;;;;;0.05;0.05;;;21.20;99.90;;;;;;4921646;28;20056;-69
2023/08/18 11:31:19;;;;;;;0.00;0.00;;;21.20;99.90;;;;;;4914370;28;20056;-70
2023/08/18 11:33:44;;;;;;;0.15;0.15;;;21.20;99.90;;;;;;4937572;28;20057;-70
2023/08/18 11:36:11;;;;;;;3.20;1.02;;;21.20;99.90;;;;;;4932398;28;20044;-71
2023/08/18 11:38:36;;;;;;;0.25;0.25;;;21.10;99.90;;;;;;4934330;28;20050;-70
2023/08/18 11:41:02;;;;;;;0.55;0.55;;;21.20;99.90;;;;;;4910488;28;20139;-69
2023/08/18 11:43:28;;;;;;;0.30;0.30;;;21.10;99.90;;;;;;4937279;28;20046;-71
2023/08/18 11:45:55;;;;;;;0.20;0.20;;;21.10;99.90;;;;;;4928971;28;20420;-71
2023/08/18 11:48:20;;;;;;;0.00;0.00;;;21.20;99.90;;;;;;4931754;28;20049;-71
2023/08/18 11:50:46;;;;;;;0.00;0.00;;;21.10;99.90;;;;;;4917025;28;20047;-71
2023/08/18 11:53:12;;;;;;;0.35;0.35;;;21.20;99.90;;;;;;4913637;28;20052;-71
2023/08/18 11:55:43;;;;;;;0.20;0.20;;;21.10;99.90;;;;;;4970121;28;20042;-71
2023/08/18 11:58:14;;;;;;;0.40;0.38;;;21.20;99.90;;;;;;4917108;28;20079;-70
2023/08/18 12:00:42;;;;;;;0.32;0.32;;;21.20;99.90;;;;;;4927793;28;20405;-71
2023/08/18 12:03:23;;;;;;;0.30;0.30;;;21.30;99.90;;;;;;4936189;28;20048;-71
2023/08/18 12:05:49;;;;;;;0.20;0.20;;;21.50;99.90;;;;;;4925707;28;20057;-71
2023/08/18 12:08:15;;;;;;;3.72;1.65;;;21.50;99.90;;;;;;4925715;28;20045;-71
2023/08/18 12:10:42;;;;;;;0.45;0.45;;;21.50;99.90;;;;;;4917409;28;20123;-70
2023/08/18 12:13:08;;;;;;;0.03;0.03;;;21.50;99.90;;;;;;4943681;28;20111;-71
2023/08/18 12:15:34;;;;;;;0.28;0.28;;;21.60;99.90;;;;;;4952504;28;20040;-71
2023/08/18 12:17:59;;;;;;;1.90;0.88;;;21.60;99.90;;;;;;4971821;28;20505;-71
2023/08/18 12:20:26;;;;;;;0.05;0.05;;;21.70;99.90;;;;;;4956671;28;20040;-71
2023/08/18 12:22:52;;;;;;;0.35;0.35;;;21.80;99.90;;;;;;4938962;28;20425;-71
2023/08/18 12:25:20;;;;;;;0.35;0.35;;;21.80;99.90;;;;;;4936387;28;20124;-71
2023/08/18 12:27:47;;;;;;;1.02;0.98;;;21.90;99.90;;;;;;4969713;28;20108;-71
2023/08/18 12:30:13;;;;;;;0.45;0.30;;;21.90;99.90;;;;;;4925900;28;20046;-71
2023/08/18 12:32:39;;;;;;;0.40;0.15;;;22.00;99.90;;;;;;4953418;28;20046;-71
2023/08/18 12:35:06;;;;;;;0.45;0.32;;;21.90;99.90;;;;;;4944719;28;20106;-71
2023/08/18 12:37:31;;;;;;;0.00;0.00;;;21.90;99.90;;;;;;4949351;28;20130;-70
2023/08/18 12:39:57;;;;;;;2.70;0.95;;;22.00;99.90;;;;;;4901442;28;20064;-71
2023/08/18 12:42:23;;;;;;;0.55;0.10;;;22.00;99.90;;;;;;4908747;28;20034;-71
2023/08/18 12:44:50;;;;;;;0.10;0.10;;;22.40;99.90;;;;;;4919047;28;20039;-71